KJEF

Jefferson City Memorial Airport

Jefferson City, Missouri, USA
METAR KJEF 151153Z AUTO 26003KT 5SM -SN BR FEW030 BKN049 OVC060 M02/M03 A3019 RMK AO2 SLP217 P0000 60000 T10221028 11017 21022 56009
Observed Flight Rules
Nov-15 @ 11:53 UTC (50 minutes ago) Marginal Visual Flight Rules
Wind Visibility Clouds Conditions
260° at 3 knots 5 miles
  • Few at 3,000' AGL
  • Broken at 4,900' AGL
  • Overcast at 6,000' AGL
  • Light Snow
  • Mist
Temperatures Readings Precipitation
Current -2°C / 28°F
Dewpoint -3°C / 27°F
Humidity 93%
Altimeter 30.19" Hg
Pressure 1021.7 hPa
Elevation 168
Current Rain 0.005
METAR KJEF 151153Z AUTO 26003KT 5SM -SN BR FEW030 BKN049 OVC060 M02/M03 A3019 RMK AO2 SLP217 P0000 60000 T10221028 11017 21022 56009
Observed Flight Rules
Nov-15 @ 11:53 UTC
(50 minutes ago)
MVFR
Wind Visibility
260° at 3 knots 5 miles
Clouds
  • Few at 3,000' AGL
  • Broken at 4,900' AGL
  • Overcast at 6,000' AGL
Conditions
  • Light Snow
  • Mist
Temperature Dewpoint
-2°C / 28°F -3°C / 27°F
Humidity Altimeter Pressure
93% 30.19" Hg 1021.7 hPa
Current Rain
0.005